COOK73 RJOC-UITT
Flight info
| Callsign | COOK73 |
|---|---|
| Flight time | N/A |
| Altitude | 38000 |
| Route | XZE B332 KANSU/K0806F380 M825 VASRO/K0811S1160 R224 YNJ W39 UGABI B451 HLD A345 TELOK/K0800F380 A810 AGINO A91 KTN R809 ATBAT G363 UNGER DCT ERMIK ERMIK4L |
| Aircraft | C25C/M-SDE2E3FGHRWXY/LB1 |
Departure
| Time | N/A |
|---|---|
| Airport | Izumo Enmusubi Airport (RJOC) |
Arrival
| Time | 2026-04-28 21:27 |
|---|---|
| Airport | Ust-Kut Airport (UITT) |
| Time | Latitude | Longitude | Altitude | Speed | Heading |
|---|---|---|---|---|---|
| 2026-04-28 20:01 | 51.00920 | 114.79041 | 37953 ft | 365 kts | 301° |
| 2026-04-28 20:01 | 51.02180 | 114.75524 | 37946 ft | 367 kts | 301° |
| 2026-04-28 20:02 | 51.04710 | 114.68431 | 37946 ft | 370 kts | 300° |
| 2026-04-28 20:02 | 51.07253 | 114.61291 | 37950 ft | 372 kts | 300° |
| 2026-04-28 20:03 | 51.10032 | 114.54409 | 37943 ft | 373 kts | 309° |
| 2026-04-28 20:03 | 51.13741 | 114.48636 | 37937 ft | 375 kts | 320° |
| 2026-04-28 20:04 | 51.17790 | 114.43396 | 37942 ft | 375 kts | 320° |
| 2026-04-28 20:04 | 51.21846 | 114.38134 | 37935 ft | 376 kts | 320° |
| 2026-04-28 20:05 | 51.25907 | 114.32858 | 37942 ft | 377 kts | 320° |
| 2026-04-28 20:05 | 51.29970 | 114.27563 | 37954 ft | 377 kts | 320° |
| 2026-04-28 20:06 | 51.34040 | 114.22249 | 37947 ft | 378 kts | 320° |
| 2026-04-28 20:06 | 51.38110 | 114.16920 | 37949 ft | 378 kts | 319° |
| 2026-04-28 20:07 | 51.42182 | 114.11574 | 37950 ft | 378 kts | 319° |
| 2026-04-28 20:07 | 51.46255 | 114.06218 | 37949 ft | 379 kts | 319° |
| 2026-04-28 20:08 | 51.50324 | 114.00852 | 37943 ft | 379 kts | 319° |
| 2026-04-28 20:08 | 51.54395 | 113.95471 | 37947 ft | 379 kts | 319° |
| 2026-04-28 20:09 | 51.58458 | 113.90088 | 37938 ft | 379 kts | 319° |
| 2026-04-28 20:09 | 51.62521 | 113.84691 | 37935 ft | 379 kts | 319° |
| 2026-04-28 20:10 | 51.66555 | 113.79299 | 37937 ft | 379 kts | 319° |
| 2026-04-28 20:10 | 51.70613 | 113.73870 | 37931 ft | 379 kts | 319° |
| 2026-04-28 20:11 | 51.74676 | 113.68415 | 37913 ft | 380 kts | 319° |
| 2026-04-28 20:11 | 51.78739 | 113.62949 | 37904 ft | 380 kts | 319° |
| 2026-04-28 20:12 | 51.82803 | 113.57471 | 37897 ft | 380 kts | 319° |
| 2026-04-28 20:12 | 51.86864 | 113.51981 | 37898 ft | 380 kts | 318° |
| 2026-04-28 20:13 | 51.90921 | 113.46485 | 37900 ft | 380 kts | 318° |
| 2026-04-28 20:13 | 51.94973 | 113.40978 | 37904 ft | 380 kts | 318° |
| 2026-04-28 20:14 | 51.99026 | 113.35462 | 37908 ft | 380 kts | 318° |
| 2026-04-28 20:14 | 52.03242 | 113.30340 | 37905 ft | 383 kts | 327° |
| 2026-04-28 20:15 | 52.08024 | 113.26477 | 37906 ft | 384 kts | 332° |
| 2026-04-28 20:15 | 52.12851 | 113.22707 | 37909 ft | 385 kts | 332° |
| 2026-04-28 20:16 | 52.17685 | 113.18942 | 37912 ft | 385 kts | 332° |
| 2026-04-28 20:16 | 52.22526 | 113.15153 | 37908 ft | 386 kts | 332° |
| 2026-04-28 20:17 | 52.27374 | 113.11354 | 37913 ft | 387 kts | 332° |
| 2026-04-28 20:17 | 52.32234 | 113.07536 | 37921 ft | 388 kts | 332° |
| 2026-04-28 20:18 | 52.37100 | 113.03701 | 37923 ft | 388 kts | 331° |
| 2026-04-28 20:18 | 52.41974 | 112.99852 | 37921 ft | 389 kts | 332° |
| 2026-04-28 20:19 | 52.46825 | 112.96013 | 37917 ft | 390 kts | 331° |
| 2026-04-28 20:19 | 52.51709 | 112.92138 | 37922 ft | 390 kts | 331° |
| 2026-04-28 20:20 | 52.56598 | 112.88216 | 37922 ft | 391 kts | 331° |
| 2026-04-28 20:20 | 52.61485 | 112.84284 | 37919 ft | 391 kts | 331° |
| 2026-04-28 20:21 | 52.66381 | 112.80341 | 37923 ft | 392 kts | 331° |
| 2026-04-28 20:21 | 52.71279 | 112.76383 | 37926 ft | 392 kts | 331° |
| 2026-04-28 20:22 | 52.76183 | 112.72415 | 37925 ft | 393 kts | 331° |
| 2026-04-28 20:22 | 52.81088 | 112.68429 | 37929 ft | 393 kts | 330° |
| 2026-04-28 20:23 | 52.86003 | 112.64429 | 37930 ft | 393 kts | 330° |
| 2026-04-28 20:23 | 52.90874 | 112.60454 | 37934 ft | 393 kts | 330° |
| 2026-04-28 20:24 | 52.95774 | 112.56445 | 37938 ft | 393 kts | 330° |
| 2026-04-28 20:24 | 53.00676 | 112.52423 | 37939 ft | 393 kts | 330° |
| 2026-04-28 20:25 | 53.05580 | 112.48409 | 37952 ft | 393 kts | 330° |
| 2026-04-28 20:25 | 53.10481 | 112.44377 | 37958 ft | 393 kts | 330° |
| 2026-04-28 20:26 | 53.15380 | 112.40340 | 37955 ft | 393 kts | 330° |
| 2026-04-28 20:26 | 53.20278 | 112.36294 | 37950 ft | 393 kts | 330° |
| 2026-04-28 20:27 | 53.25176 | 112.32239 | 37959 ft | 393 kts | 330° |
| 2026-04-28 20:27 | 53.30076 | 112.28167 | 37953 ft | 393 kts | 330° |
| 2026-04-28 20:28 | 53.34946 | 112.24113 | 37947 ft | 393 kts | 329° |
| 2026-04-28 20:28 | 53.39846 | 112.20024 | 37947 ft | 394 kts | 329° |
| 2026-04-28 20:29 | 53.44748 | 112.15922 | 37954 ft | 393 kts | 329° |
| 2026-04-28 20:29 | 53.49652 | 112.11807 | 37955 ft | 394 kts | 329° |
| 2026-04-28 20:30 | 53.54555 | 112.07683 | 37958 ft | 394 kts | 329° |
| 2026-04-28 20:30 | 53.59460 | 112.03548 | 37968 ft | 394 kts | 329° |
| 2026-04-28 20:31 | 53.64373 | 111.99441 | 37971 ft | 395 kts | 330° |
| 2026-04-28 20:31 | 53.69315 | 111.95415 | 37975 ft | 394 kts | 329° |
| 2026-04-28 20:32 | 53.74209 | 111.91354 | 37978 ft | 394 kts | 329° |
| 2026-04-28 20:32 | 53.79138 | 111.87286 | 37975 ft | 394 kts | 329° |
| 2026-04-28 20:33 | 53.84067 | 111.83191 | 37974 ft | 395 kts | 329° |
| 2026-04-28 20:33 | 53.88996 | 111.79092 | 37968 ft | 395 kts | 329° |
| 2026-04-28 20:34 | 53.93922 | 111.74982 | 37957 ft | 394 kts | 329° |
| 2026-04-28 20:34 | 53.98846 | 111.70864 | 37949 ft | 394 kts | 329° |
| 2026-04-28 20:35 | 54.03770 | 111.66734 | 37935 ft | 394 kts | 329° |
| 2026-04-28 20:35 | 54.08691 | 111.62596 | 37921 ft | 394 kts | 328° |
| 2026-04-28 20:36 | 54.13611 | 111.58447 | 37917 ft | 395 kts | 328° |
| 2026-04-28 20:36 | 54.18529 | 111.54292 | 37907 ft | 395 kts | 328° |
| 2026-04-28 20:37 | 54.23451 | 111.50118 | 37902 ft | 395 kts | 328° |
| 2026-04-28 20:37 | 54.28345 | 111.45962 | 37912 ft | 395 kts | 328° |
| 2026-04-28 20:38 | 54.33272 | 111.41763 | 37920 ft | 396 kts | 328° |
| 2026-04-28 20:38 | 54.38207 | 111.37547 | 37918 ft | 396 kts | 328° |
| 2026-04-28 20:39 | 54.43145 | 111.33316 | 37927 ft | 397 kts | 328° |
| 2026-04-28 20:39 | 54.48087 | 111.29071 | 37939 ft | 397 kts | 328° |
| 2026-04-28 20:40 | 54.53035 | 111.24806 | 37947 ft | 398 kts | 328° |
| 2026-04-28 20:40 | 54.57989 | 111.20530 | 37953 ft | 399 kts | 328° |
| 2026-04-28 20:41 | 54.62918 | 111.16260 | 37958 ft | 399 kts | 328° |
| 2026-04-28 20:41 | 54.67883 | 111.11947 | 37963 ft | 400 kts | 328° |
| 2026-04-28 20:42 | 54.72849 | 111.07624 | 37958 ft | 400 kts | 328° |
| 2026-04-28 20:42 | 54.77824 | 111.03278 | 37957 ft | 400 kts | 328° |
| 2026-04-28 20:43 | 54.82798 | 110.98922 | 37958 ft | 400 kts | 327° |
| 2026-04-28 20:43 | 54.87766 | 110.94560 | 37953 ft | 400 kts | 327° |
| 2026-04-28 20:44 | 54.92735 | 110.90186 | 37949 ft | 400 kts | 327° |
| 2026-04-28 20:44 | 54.97709 | 110.85792 | 37945 ft | 401 kts | 327° |
| 2026-04-28 20:45 | 55.02691 | 110.81378 | 37945 ft | 402 kts | 327° |
| 2026-04-28 20:45 | 55.07683 | 110.76947 | 37949 ft | 404 kts | 327° |
| 2026-04-28 20:46 | 55.12659 | 110.72517 | 37957 ft | 404 kts | 327° |
| 2026-04-28 20:46 | 55.17674 | 110.68039 | 37969 ft | 405 kts | 327° |
| 2026-04-28 20:47 | 55.22684 | 110.63546 | 37984 ft | 405 kts | 327° |
| 2026-04-28 20:47 | 55.27705 | 110.59039 | 37997 ft | 406 kts | 327° |
| 2026-04-28 20:48 | 55.31895 | 110.55270 | 38008 ft | 407 kts | 327° |
| 2026-04-28 20:48 | 55.36937 | 110.50712 | 38020 ft | 408 kts | 327° |
| 2026-04-28 20:49 | 55.41992 | 110.46139 | 38027 ft | 409 kts | 327° |
| 2026-04-28 20:49 | 55.47054 | 110.41539 | 38036 ft | 410 kts | 327° |
| 2026-04-28 20:50 | 55.52130 | 110.36918 | 38044 ft | 411 kts | 327° |
| 2026-04-28 20:50 | 55.57180 | 110.32306 | 38049 ft | 411 kts | 327° |
| 2026-04-28 20:51 | 55.62259 | 110.27652 | 38056 ft | 412 kts | 327° |
| 2026-04-28 20:51 | 55.67319 | 110.22853 | 38059 ft | 412 kts | 326° |
| 2026-04-28 20:52 | 55.72360 | 110.17956 | 38063 ft | 413 kts | 326° |
| 2026-04-28 20:52 | 55.77410 | 110.13033 | 38063 ft | 413 kts | 326° |
| 2026-04-28 20:53 | 55.84948 | 110.05658 | 38071 ft | 411 kts | 326° |
| 2026-04-28 20:53 | 55.89922 | 110.00765 | 38077 ft | 410 kts | 325° |
| 2026-04-28 20:54 | 55.94470 | 109.94863 | 38082 ft | 401 kts | 313° |
| 2026-04-28 20:54 | 55.98147 | 109.87538 | 38087 ft | 393 kts | 302° |
| 2026-04-28 20:55 | 56.00856 | 109.79150 | 38090 ft | 388 kts | 291° |
| 2026-04-28 20:55 | 56.02534 | 109.70060 | 38098 ft | 385 kts | 281° |
| 2026-04-28 20:56 | 56.03329 | 109.60635 | 38097 ft | 383 kts | 277° |
| 2026-04-28 20:56 | 56.04047 | 109.51212 | 38099 ft | 382 kts | 276° |
| 2026-04-28 20:57 | 56.04739 | 109.41800 | 38108 ft | 381 kts | 276° |
| 2026-04-28 20:57 | 56.05425 | 109.32454 | 38117 ft | 381 kts | 276° |
| 2026-04-28 20:58 | 56.06105 | 109.23069 | 38124 ft | 380 kts | 276° |
| 2026-04-28 20:58 | 56.06779 | 109.13692 | 38126 ft | 380 kts | 276° |
| 2026-04-28 20:59 | 56.07443 | 109.04331 | 38135 ft | 379 kts | 276° |
| 2026-04-28 20:59 | 56.08102 | 108.94951 | 38135 ft | 380 kts | 276° |
| 2026-04-28 21:00 | 56.08752 | 108.85559 | 38140 ft | 380 kts | 276° |
| 2026-04-28 21:00 | 56.09399 | 108.76163 | 38146 ft | 380 kts | 275° |
| 2026-04-28 21:01 | 56.10036 | 108.66757 | 38145 ft | 381 kts | 275° |
| 2026-04-28 21:01 | 56.10669 | 108.57339 | 38153 ft | 381 kts | 275° |
| 2026-04-28 21:02 | 56.11289 | 108.47971 | 38158 ft | 381 kts | 275° |
| 2026-04-28 21:02 | 56.11910 | 108.38528 | 38165 ft | 382 kts | 275° |
| 2026-04-28 21:03 | 56.12520 | 108.29063 | 38172 ft | 382 kts | 275° |
| 2026-04-28 21:03 | 56.13127 | 108.19593 | 38173 ft | 382 kts | 275° |
| 2026-04-28 21:04 | 56.13728 | 108.10063 | 37719 ft | 392 kts | 275° |
| 2026-04-28 21:04 | 56.14036 | 108.05145 | 37208 ft | 401 kts | 275° |
| 2026-04-28 21:04 | 56.14343 | 108.00251 | 36729 ft | 388 kts | 275° |
| 2026-04-28 21:05 | 56.14634 | 107.95533 | 36265 ft | 374 kts | 274° |
| 2026-04-28 21:05 | 56.14915 | 107.90982 | 35806 ft | 361 kts | 274° |
| 2026-04-28 21:05 | 56.15182 | 107.86582 | 35365 ft | 349 kts | 274° |
| 2026-04-28 21:05 | 56.15444 | 107.82320 | 34928 ft | 339 kts | 275° |
| 2026-04-28 21:06 | 56.15872 | 107.78270 | 34505 ft | 331 kts | 278° |
| 2026-04-28 21:06 | 56.16489 | 107.74282 | 34047 ft | 324 kts | 283° |
| 2026-04-28 21:06 | 56.17439 | 107.70619 | 33540 ft | 325 kts | 294° |
| 2026-04-28 21:06 | 56.18851 | 107.67413 | 33041 ft | 331 kts | 304° |
| 2026-04-28 21:07 | 56.20537 | 107.64694 | 32645 ft | 328 kts | 308° |
| 2026-04-28 21:07 | 56.22245 | 107.62034 | 32242 ft | 321 kts | 307° |
| 2026-04-28 21:07 | 56.23838 | 107.59301 | 31846 ft | 312 kts | 303° |
| 2026-04-28 21:07 | 56.25250 | 107.56427 | 31478 ft | 301 kts | 298° |
| 2026-04-28 21:08 | 56.26374 | 107.53343 | 31098 ft | 290 kts | 290° |
| 2026-04-28 21:08 | 56.27321 | 107.50169 | 30724 ft | 286 kts | 290° |
| 2026-04-28 21:08 | 56.28303 | 107.47070 | 30364 ft | 285 kts | 291° |
| 2026-04-28 21:08 | 56.29335 | 107.44040 | 29973 ft | 283 kts | 292° |
| 2026-04-28 21:09 | 56.30355 | 107.41035 | 29553 ft | 280 kts | 291° |
| 2026-04-28 21:09 | 56.31349 | 107.38036 | 29142 ft | 278 kts | 291° |
| 2026-04-28 21:09 | 56.32335 | 107.35051 | 28747 ft | 276 kts | 291° |
| 2026-04-28 21:09 | 56.33320 | 107.32077 | 28355 ft | 276 kts | 291° |
| 2026-04-28 21:10 | 56.34303 | 107.29116 | 27970 ft | 275 kts | 291° |
| 2026-04-28 21:10 | 56.35317 | 107.26186 | 27596 ft | 279 kts | 295° |
| 2026-04-28 21:10 | 56.36630 | 107.23478 | 26881 ft | 295 kts | 302° |
| 2026-04-28 21:10 | 56.38040 | 107.20709 | 26119 ft | 303 kts | 300° |
| 2026-04-28 21:11 | 56.39357 | 107.17728 | 25373 ft | 304 kts | 295° |
| 2026-04-28 21:11 | 56.40462 | 107.14477 | 24651 ft | 305 kts | 290° |
| 2026-04-28 21:11 | 56.41527 | 107.11125 | 23949 ft | 311 kts | 291° |
| 2026-04-28 21:11 | 56.42675 | 107.07780 | 23175 ft | 316 kts | 293° |
| 2026-04-28 21:12 | 56.43864 | 107.04415 | 22370 ft | 318 kts | 293° |
| 2026-04-28 21:12 | 56.44989 | 107.00984 | 21599 ft | 317 kts | 291° |
| 2026-04-28 21:12 | 56.46075 | 106.97532 | 21155 ft | 312 kts | 293° |
| 2026-04-28 21:12 | 56.47207 | 106.94294 | 20823 ft | 305 kts | 294° |
| 2026-04-28 21:13 | 56.48338 | 106.91106 | 20516 ft | 298 kts | 294° |
| 2026-04-28 21:13 | 56.49419 | 106.87969 | 20139 ft | 294 kts | 293° |
| 2026-04-28 21:13 | 56.50484 | 106.84839 | 19481 ft | 288 kts | 294° |
| 2026-04-28 21:13 | 56.51528 | 106.81787 | 18831 ft | 283 kts | 294° |
| 2026-04-28 21:14 | 56.52562 | 106.78786 | 18116 ft | 278 kts | 295° |
| 2026-04-28 21:14 | 56.53574 | 106.75826 | 17366 ft | 275 kts | 295° |
| 2026-04-28 21:14 | 56.54579 | 106.72895 | 16664 ft | 272 kts | 296° |
| 2026-04-28 21:14 | 56.55566 | 106.69995 | 16068 ft | 268 kts | 297° |
| 2026-04-28 21:15 | 56.56544 | 106.67144 | 15548 ft | 264 kts | 297° |
| 2026-04-28 21:15 | 56.57496 | 106.64339 | 15076 ft | 260 kts | 298° |
| 2026-04-28 21:15 | 56.58441 | 106.61568 | 14628 ft | 256 kts | 298° |
| 2026-04-28 21:15 | 56.59373 | 106.58832 | 14192 ft | 254 kts | 300° |
| 2026-04-28 21:16 | 56.60295 | 106.56111 | 13742 ft | 252 kts | 300° |
| 2026-04-28 21:16 | 56.61214 | 106.53413 | 13270 ft | 250 kts | 300° |
| 2026-04-28 21:16 | 56.62111 | 106.50757 | 12825 ft | 249 kts | 300° |
| 2026-04-28 21:16 | 56.63017 | 106.48084 | 12369 ft | 248 kts | 300° |
| 2026-04-28 21:17 | 56.63919 | 106.45422 | 11949 ft | 247 kts | 300° |
| 2026-04-28 21:17 | 56.64817 | 106.42760 | 11529 ft | 246 kts | 301° |
| 2026-04-28 21:17 | 56.65711 | 106.40117 | 11079 ft | 245 kts | 301° |
| 2026-04-28 21:17 | 56.66601 | 106.37479 | 10665 ft | 244 kts | 301° |
| 2026-04-28 21:18 | 56.67482 | 106.34856 | 10269 ft | 242 kts | 301° |
| 2026-04-28 21:18 | 56.68361 | 106.32246 | 9846 ft | 242 kts | 301° |
| 2026-04-28 21:18 | 56.69225 | 106.29674 | 9397 ft | 234 kts | 301° |
| 2026-04-28 21:18 | 56.70065 | 106.27175 | 8962 ft | 229 kts | 301° |
| 2026-04-28 21:19 | 56.70883 | 106.24738 | 8544 ft | 220 kts | 301° |
| 2026-04-28 21:19 | 56.71654 | 106.22437 | 8185 ft | 206 kts | 301° |
| 2026-04-28 21:19 | 56.72374 | 106.20273 | 7869 ft | 195 kts | 301° |
| 2026-04-28 21:19 | 56.73060 | 106.18224 | 7628 ft | 183 kts | 301° |
| 2026-04-28 21:20 | 56.73699 | 106.16320 | 7477 ft | 170 kts | 301° |
| 2026-04-28 21:20 | 56.74281 | 106.14461 | 7316 ft | 178 kts | 297° |
| 2026-04-28 21:20 | 56.74858 | 106.12353 | 7067 ft | 192 kts | 298° |
| 2026-04-28 21:20 | 56.75487 | 106.10135 | 6834 ft | 201 kts | 298° |
| 2026-04-28 21:21 | 56.76134 | 106.07828 | 6597 ft | 208 kts | 297° |
| 2026-04-28 21:21 | 56.76799 | 106.05457 | 6306 ft | 206 kts | 298° |
| 2026-04-28 21:21 | 56.77425 | 106.03194 | 6025 ft | 195 kts | 297° |
| 2026-04-28 21:21 | 56.77985 | 106.01183 | 5919 ft | 162 kts | 298° |
| 2026-04-28 21:22 | 56.78459 | 105.99474 | 5683 ft | 128 kts | 297° |
| 2026-04-28 21:22 | 56.78826 | 105.98157 | 5398 ft | 111 kts | 299° |
| 2026-04-28 21:22 | 56.79167 | 105.96938 | 5133 ft | 105 kts | 299° |
| 2026-04-28 21:22 | 56.79385 | 105.96159 | 5015 ft | 104 kts | 299° |
| 2026-04-28 21:23 | 56.79828 | 105.94573 | 4808 ft | 105 kts | 299° |
| 2026-04-28 21:23 | 56.80156 | 105.93383 | 4677 ft | 104 kts | 298° |
| 2026-04-28 21:23 | 56.80481 | 105.92205 | 4482 ft | 104 kts | 299° |
| 2026-04-28 21:23 | 56.80807 | 105.91031 | 4271 ft | 104 kts | 298° |
| 2026-04-28 21:24 | 56.81135 | 105.89861 | 4090 ft | 103 kts | 297° |
| 2026-04-28 21:24 | 56.81463 | 105.88697 | 3881 ft | 103 kts | 297° |
| 2026-04-28 21:24 | 56.81779 | 105.87520 | 3669 ft | 103 kts | 298° |
| 2026-04-28 21:24 | 56.82101 | 105.86362 | 3533 ft | 101 kts | 298° |
| 2026-04-28 21:25 | 56.82424 | 105.85270 | 3443 ft | 97 kts | 299° |
| 2026-04-28 21:25 | 56.82750 | 105.84180 | 3241 ft | 100 kts | 298° |
| 2026-04-28 21:25 | 56.83068 | 105.83031 | 3251 ft | 99 kts | 298° |
| 2026-04-28 21:25 | 56.83321 | 105.81899 | 3200 ft | 100 kts | 295° |
| 2026-04-28 21:26 | 56.83610 | 105.80738 | 3090 ft | 103 kts | 293° |
| 2026-04-28 21:26 | 56.83948 | 105.79595 | 2957 ft | 104 kts | 303° |
| 2026-04-28 21:26 | 56.84302 | 105.78443 | 2857 ft | 105 kts | 289° |
| 2026-04-28 21:26 | 56.84616 | 105.77224 | 2668 ft | 107 kts | 300° |
| 2026-04-28 21:27 | 56.84957 | 105.76018 | 2518 ft | 106 kts | 294° |
| 2026-04-28 21:27 | 56.85277 | 105.74862 | 2297 ft | 100 kts | 296° |
| 2026-04-28 21:27 | 56.85550 | 105.73872 | 2230 ft | 57 kts | 296° |
| 2026-04-28 21:27 | 56.85637 | 105.73550 | 2233 ft | 17 kts | 296° |
| 2026-04-28 21:28 | 56.85690 | 105.73355 | 2232 ft | 17 kts | 297° |
| 2026-04-28 21:28 | 56.85719 | 105.73215 | 2232 ft | 11 kts | 265° |
| 2026-04-28 21:28 | 56.85665 | 105.73118 | 2232 ft | 12 kts | 205° |
| 2026-04-28 21:28 | 56.85587 | 105.73047 | 2235 ft | 13 kts | 209° |
| 2026-04-28 21:29 | 56.85580 | 105.72904 | 2233 ft | 13 kts | 296° |
| 2026-04-28 21:29 | 56.85622 | 105.72755 | 2235 ft | 13 kts | 296° |
| 2026-04-28 21:29 | 56.85664 | 105.72601 | 2234 ft | 14 kts | 296° |
| 2026-04-28 21:29 | 56.85707 | 105.72443 | 2236 ft | 14 kts | 296° |
| 2026-04-28 21:30 | 56.85751 | 105.72281 | 2237 ft | 14 kts | 296° |
| 2026-04-28 21:30 | 56.85784 | 105.72155 | 2235 ft | 9 kts | 296° |
| 2026-04-28 21:30 | 56.85781 | 105.72045 | 2238 ft | 9 kts | 253° |
| 2026-04-28 21:30 | 56.85790 | 105.71926 | 2241 ft | 10 kts | 288° |
| 2026-04-28 21:31 | 56.85806 | 105.71842 | 2238 ft | 4 kts | 290° |
| 2026-04-28 21:31 | 56.85816 | 105.71792 | 2237 ft | 5 kts | 290° |
| 2026-04-28 21:31 | 56.85830 | 105.71726 | 2238 ft | 6 kts | 287° |
| 2026-04-28 21:31 | 56.85812 | 105.71660 | 2242 ft | 7 kts | 233° |
| 2026-04-28 21:32 | 56.85808 | 105.71636 | 2243 ft | 0 kts | 281° |